createdAt,value
2023-02-15T00:02:34.289Z,92.50
2023-02-15T00:05:59.204Z,92.50
2023-02-15T00:09:23.252Z,92.40
2023-02-15T00:12:49.302Z,92.40
2023-02-15T00:16:15.295Z,92.40
2023-02-15T00:19:39.260Z,92.40
2023-02-15T00:23:05.229Z,92.30
2023-02-15T00:26:29.502Z,92.30
2023-02-15T00:29:53.249Z,92.40
2023-02-15T00:33:18.388Z,92.50
2023-02-15T00:36:42.086Z,92.60
2023-02-15T00:40:09.051Z,92.60
2023-02-15T00:43:34.848Z,92.60
2023-02-15T00:46:58.708Z,92.60
2023-02-15T00:50:24.566Z,92.70
2023-02-15T00:53:49.763Z,92.60
2023-02-15T00:57:14.251Z,92.50
2023-02-15T01:00:38.595Z,92.40
2023-02-15T01:04:04.297Z,92.50
2023-02-15T01:07:29.549Z,92.60
2023-02-15T01:10:53.184Z,92.50
2023-02-15T01:14:17.152Z,92.60
2023-02-15T01:17:41.161Z,92.80
2023-02-15T01:21:11.899Z,92.80
2023-02-15T01:24:39.927Z,92.70
2023-02-15T01:28:03.943Z,92.70
2023-02-15T01:31:28.295Z,92.80
2023-02-15T01:34:54.312Z,92.90
2023-02-15T01:38:18.186Z,92.80
2023-02-15T01:41:43.545Z,92.90
2023-02-15T01:45:20.280Z,92.90
2023-02-15T01:48:48.692Z,93.00
2023-02-15T01:52:15.579Z,93.00
2023-02-15T01:55:44.780Z,93.00
2023-02-15T01:59:13.793Z,93.00
2023-02-15T02:02:40.461Z,93.00
2023-02-15T02:06:04.227Z,92.90
2023-02-15T02:09:28.944Z,92.90
2023-02-15T02:12:57.316Z,92.90
2023-02-15T02:16:26.830Z,92.90
2023-02-15T02:20:21.912Z,92.90
2023-02-15T02:24:08.699Z,92.80
2023-02-15T02:27:40.861Z,93.20
2023-02-15T02:31:42.446Z,92.80
2023-02-15T02:35:14.570Z,92.90
2023-02-15T02:38:52.317Z,92.80
2023-02-15T02:42:27.337Z,92.90
2023-02-15T02:45:58.248Z,92.90
2023-02-15T02:49:34.743Z,92.80
2023-02-15T02:53:01.354Z,92.60
2023-02-15T02:56:32.000Z,92.60
2023-02-15T02:59:59.945Z,92.60
2023-02-15T03:03:29.378Z,92.70
2023-02-15T03:06:57.416Z,92.70
2023-02-15T03:10:25.644Z,92.70
2023-02-15T03:13:51.233Z,92.70
2023-02-15T03:17:20.593Z,92.90
2023-02-15T03:20:49.182Z,93.00
2023-02-15T03:24:17.060Z,93.00
2023-02-15T03:27:47.073Z,92.90
2023-02-15T03:31:13.915Z,92.80
2023-02-15T03:34:38.482Z,92.80
2023-02-15T03:38:05.462Z,92.90
2023-02-15T03:41:34.169Z,93.00
2023-02-15T03:45:01.967Z,93.00
2023-02-15T03:48:30.804Z,93.10
2023-02-15T03:51:58.760Z,93.40
2023-02-15T03:55:22.287Z,93.40
2023-02-15T03:59:03.174Z,93.30
2023-02-15T04:02:33.223Z,93.20
2023-02-15T04:05:59.589Z,93.30
2023-02-15T04:09:41.578Z,93.50
2023-02-15T04:13:05.164Z,93.70
2023-02-15T04:16:32.182Z,93.80
2023-02-15T04:20:15.557Z,93.80
2023-02-15T04:23:56.584Z,93.90
2023-02-15T04:27:23.980Z,93.80
2023-02-15T04:30:48.839Z,93.90
2023-02-15T04:34:13.386Z,93.90
2023-02-15T04:37:40.392Z,93.60
2023-02-15T04:41:04.393Z,93.50
2023-02-15T04:44:27.933Z,93.50
2023-02-15T04:47:54.950Z,93.60
2023-02-15T04:51:19.412Z,93.70
2023-02-15T04:54:44.939Z,93.70
2023-02-15T04:58:11.951Z,93.90
2023-02-15T05:01:35.660Z,93.80
2023-02-15T05:05:00.383Z,93.80
2023-02-15T05:08:24.427Z,93.80
2023-02-15T05:11:49.874Z,93.70
2023-02-15T05:15:14.418Z,93.70
2023-02-15T05:18:38.474Z,93.60
2023-02-15T05:22:02.451Z,93.80
2023-02-15T05:25:46.036Z,93.70
2023-02-15T05:29:11.792Z,93.70
2023-02-15T05:32:35.515Z,93.60
2023-02-15T05:36:00.808Z,93.70
2023-02-15T05:39:26.460Z,93.80
2023-02-15T05:42:50.443Z,93.90
2023-02-15T05:46:15.854Z,93.80
2023-02-15T05:49:40.661Z,93.80
2023-02-15T05:53:04.524Z,93.80
2023-02-15T05:56:28.794Z,93.70
2023-02-15T05:59:52.492Z,93.70
2023-02-15T06:03:24.017Z,93.70
2023-02-15T06:06:47.688Z,93.80
2023-02-15T06:10:11.757Z,93.90
2023-02-15T06:13:41.165Z,94.00
2023-02-15T06:17:04.739Z,94.10
2023-02-15T06:20:29.909Z,94.10
2023-02-15T06:23:55.678Z,94.10
2023-02-15T06:27:19.505Z,94.20
2023-02-15T06:30:43.560Z,94.30
2023-02-15T06:34:07.678Z,94.30
2023-02-15T06:37:35.489Z,94.30
2023-02-15T06:40:59.564Z,94.30
2023-02-15T06:44:23.513Z,94.20
2023-02-15T06:47:47.490Z,94.30
2023-02-15T06:51:14.228Z,94.30
2023-02-15T06:54:39.953Z,94.30
2023-02-15T06:58:03.646Z,94.40
2023-02-15T07:01:27.258Z,94.30
2023-02-15T07:04:52.402Z,94.20
2023-02-15T07:08:16.630Z,94.30
2023-02-15T07:11:59.766Z,94.30
2023-02-15T07:15:24.002Z,94.30
2023-02-15T07:18:47.566Z,94.20
2023-02-15T07:22:11.543Z,94.10
2023-02-15T07:25:35.127Z,94.30
2023-02-15T07:29:00.109Z,94.10
2023-02-15T07:32:23.811Z,93.80
2023-02-15T07:35:51.138Z,93.90
2023-02-15T07:39:14.889Z,93.90
2023-02-15T07:42:38.405Z,93.30
2023-02-15T07:46:05.205Z,93.40
2023-02-15T07:49:28.932Z,93.60
2023-02-15T07:52:52.727Z,93.60
2023-02-15T07:56:16.935Z,93.70
2023-02-15T07:59:40.444Z,95.50
2023-02-15T08:03:17.812Z,90.70
2023-02-15T08:06:41.456Z,83.80
2023-02-15T08:10:05.647Z,74.20
2023-02-15T08:13:29.155Z,73.40
2023-02-15T08:16:54.173Z,70.80
2023-02-15T08:20:19.441Z,64.30
2023-02-15T08:23:43.010Z,64.30
2023-02-15T08:27:07.397Z,58.60
2023-02-15T08:30:31.118Z,53.70
2023-02-15T08:33:56.546Z,53.60
2023-02-15T08:37:21.512Z,55.60
2023-02-15T08:40:45.110Z,55.80
2023-02-15T08:44:10.473Z,55.40
2023-02-15T08:47:34.171Z,55.10
2023-02-15T08:50:57.837Z,52.80
2023-02-15T08:54:23.469Z,50.60
2023-02-15T08:57:47.859Z,50.30
2023-02-15T09:01:13.006Z,47.60
2023-02-15T09:04:36.621Z,46.40
2023-02-15T09:08:00.162Z,45.30
2023-02-15T09:11:26.599Z,46.70
2023-02-15T09:14:50.239Z,45.50
2023-02-15T09:18:17.880Z,45.50
2023-02-15T09:21:41.452Z,45.50
2023-02-15T09:25:05.294Z,45.80
2023-02-15T09:28:30.233Z,44.80
2023-02-15T09:31:54.552Z,46.80
2023-02-15T09:35:18.433Z,47.90
2023-02-15T09:38:43.379Z,48.10
2023-02-15T09:42:44.061Z,47.60
2023-02-15T09:46:29.808Z,46.40
2023-02-15T09:50:03.042Z,43.20
2023-02-15T09:53:54.975Z,43.90
2023-02-15T09:57:28.282Z,43.20
2023-02-15T10:01:01.197Z,43.20
2023-02-15T10:04:45.411Z,41.10
2023-02-15T10:08:33.312Z,44.50
2023-02-15T10:12:13.159Z,44.50
2023-02-15T10:15:54.373Z,44.60
2023-02-15T10:19:27.771Z,44.50
2023-02-15T10:23:07.600Z,44.80
2023-02-15T10:26:39.141Z,45.00
2023-02-15T10:30:11.586Z,43.90
2023-02-15T10:33:41.180Z,43.00
2023-02-15T10:37:38.568Z,45.00
2023-02-15T10:41:18.337Z,45.90
2023-02-15T10:45:01.005Z,43.90
2023-02-15T10:48:39.439Z,45.20
2023-02-15T10:52:15.076Z,44.70
2023-02-15T10:55:51.647Z,45.30
2023-02-15T10:59:33.158Z,47.30
2023-02-15T11:03:12.997Z,48.30
2023-02-15T11:06:38.040Z,48.60
2023-02-15T11:10:09.778Z,49.00
2023-02-15T11:13:38.757Z,49.50
2023-02-15T11:17:07.857Z,49.40
2023-02-15T11:20:37.868Z,51.00
2023-02-15T11:24:02.171Z,52.00
2023-02-15T11:27:30.210Z,52.90
2023-02-15T11:30:58.365Z,54.20
2023-02-15T11:34:29.703Z,57.40
2023-02-15T11:37:59.171Z,59.70
2023-02-15T11:41:26.937Z,61.40
2023-02-15T11:45:00.981Z,64.30
2023-02-15T11:48:25.527Z,65.30
2023-02-15T11:51:51.531Z,66.00
2023-02-15T11:55:19.997Z,66.70
2023-02-15T11:58:47.500Z,67.40
2023-02-15T12:02:20.226Z,66.50
2023-02-15T12:05:49.654Z,69.20
2023-02-15T12:09:23.742Z,70.20
2023-02-15T12:12:47.378Z,70.90
2023-02-15T12:16:14.480Z,69.50
2023-02-15T12:19:41.567Z,70.90
2023-02-15T12:23:08.132Z,71.70
2023-02-15T12:26:35.930Z,70.70
2023-02-15T12:30:04.190Z,69.80
2023-02-15T12:33:32.198Z,69.30
2023-02-15T12:36:59.838Z,69.10
2023-02-15T12:40:31.267Z,68.90
2023-02-15T12:44:14.315Z,68.60
2023-02-15T12:47:38.153Z,68.80
2023-02-15T12:51:11.005Z,68.40
2023-02-15T12:54:41.000Z,67.90
2023-02-15T12:58:09.374Z,68.40
2023-02-15T13:01:36.175Z,69.00
2023-02-15T13:05:09.808Z,69.20
2023-02-15T13:08:37.746Z,69.00
2023-02-15T13:12:13.437Z,69.60
2023-02-15T13:15:40.774Z,69.60
2023-02-15T13:19:09.432Z,70.00
2023-02-15T13:22:40.209Z,69.70
2023-02-15T13:26:10.411Z,69.80
2023-02-15T13:29:38.032Z,68.60
2023-02-15T13:33:05.246Z,69.10
2023-02-15T13:36:40.392Z,69.00
2023-02-15T13:40:09.904Z,68.70
2023-02-15T13:43:48.984Z,68.40
2023-02-15T13:47:22.080Z,68.40
2023-02-15T13:51:06.578Z,68.00
2023-02-15T13:54:46.761Z,67.90
2023-02-15T13:58:32.828Z,67.90
2023-02-15T14:02:00.349Z,67.20
2023-02-15T14:05:32.254Z,67.80
2023-02-15T14:09:07.218Z,68.40
2023-02-15T14:12:54.403Z,67.90
2023-02-15T14:16:28.583Z,68.10
2023-02-15T14:19:56.337Z,68.70
2023-02-15T14:23:32.059Z,68.20
2023-02-15T14:27:04.553Z,68.70
2023-02-15T14:30:33.695Z,68.60
2023-02-15T14:33:58.862Z,68.40
2023-02-15T14:37:34.068Z,68.30
2023-02-15T14:41:08.116Z,68.00
2023-02-15T14:44:39.434Z,68.00
2023-02-15T14:48:14.329Z,68.30
2023-02-15T14:51:59.676Z,68.30
2023-02-15T14:55:37.342Z,68.00
2023-02-15T14:59:16.138Z,68.00
2023-02-15T15:02:49.550Z,68.80
2023-02-15T15:06:27.510Z,68.20
2023-02-15T15:10:01.652Z,68.50
2023-02-15T15:13:40.431Z,68.70
2023-02-15T15:17:05.694Z,68.90
2023-02-15T15:20:51.477Z,68.40
2023-02-15T15:24:48.401Z,69.50
2023-02-15T15:28:32.029Z,69.70
2023-02-15T15:32:01.333Z,70.90
2023-02-15T15:35:31.466Z,70.80
2023-02-15T15:39:08.056Z,71.00
2023-02-15T15:42:45.622Z,71.30
2023-02-15T15:46:26.361Z,71.50
2023-02-15T15:49:51.695Z,72.60
2023-02-15T15:53:21.468Z,72.50
2023-02-15T15:56:49.088Z,72.60
2023-02-15T16:00:35.983Z,73.00
2023-02-15T16:04:01.159Z,73.40
2023-02-15T16:07:29.134Z,73.90
2023-02-15T16:10:52.692Z,74.00
2023-02-15T16:14:18.919Z,74.10
2023-02-15T16:17:44.808Z,74.40
2023-02-15T16:21:08.346Z,74.40
2023-02-15T16:25:10.396Z,75.00
2023-02-15T16:28:34.211Z,75.00
2023-02-15T16:32:06.769Z,75.60
2023-02-15T16:35:30.509Z,77.50
2023-02-15T16:39:18.601Z,77.70
2023-02-15T16:42:43.590Z,77.80
2023-02-15T16:46:12.974Z,78.50
2023-02-15T16:49:36.776Z,79.60
2023-02-15T16:53:01.013Z,80.60
2023-02-15T16:56:26.091Z,80.90
2023-02-15T16:59:53.924Z,81.60
2023-02-15T17:03:26.441Z,82.10
2023-02-15T17:07:00.988Z,82.90
2023-02-15T17:10:30.603Z,83.50
2023-02-15T17:14:15.217Z,83.60
2023-02-15T17:17:40.238Z,83.80
2023-02-15T17:21:12.324Z,84.20
2023-02-15T17:24:41.099Z,84.70
2023-02-15T17:28:05.270Z,85.00
2023-02-15T17:31:33.077Z,85.00
2023-02-15T17:35:09.149Z,85.30
2023-02-15T17:38:33.316Z,85.50
2023-02-15T17:41:56.892Z,85.70
2023-02-15T17:45:21.187Z,85.90
2023-02-15T17:48:44.813Z,86.20
2023-02-15T17:52:13.759Z,86.50
2023-02-15T17:55:39.401Z,86.40
2023-02-15T17:59:07.358Z,86.50
2023-02-15T18:02:53.714Z,86.70
2023-02-15T18:06:35.284Z,86.70
2023-02-15T18:10:17.644Z,86.80
2023-02-15T18:13:41.255Z,87.40
2023-02-15T18:17:06.386Z,87.10
2023-02-15T18:20:34.143Z,87.20
2023-02-15T18:23:57.976Z,87.50
2023-02-15T18:27:22.940Z,87.70
2023-02-15T18:30:47.177Z,87.80
2023-02-15T18:34:23.013Z,87.60
2023-02-15T18:37:47.466Z,87.60
2023-02-15T18:41:17.256Z,87.80
2023-02-15T18:44:44.434Z,88.20
2023-02-15T18:48:09.829Z,88.30
2023-02-15T18:51:39.836Z,88.20
2023-02-15T18:55:07.869Z,88.20
2023-02-15T18:58:31.505Z,88.30
2023-02-15T19:02:00.210Z,88.40
2023-02-15T19:05:24.923Z,88.60
2023-02-15T19:08:50.661Z,89.00
2023-02-15T19:12:14.830Z,89.30
2023-02-15T19:15:38.351Z,89.30
2023-02-15T19:19:04.047Z,89.10
2023-02-15T19:22:30.803Z,89.30
2023-02-15T19:25:55.306Z,89.50
2023-02-15T19:29:25.783Z,89.70
2023-02-15T19:32:53.200Z,89.70
2023-02-15T19:36:23.977Z,90.00
2023-02-15T19:39:49.989Z,90.10
2023-02-15T19:43:26.033Z,90.00
2023-02-15T19:46:58.927Z,90.10
2023-02-15T19:50:28.238Z,90.20
2023-02-15T19:53:53.384Z,90.30
2023-02-15T19:57:21.540Z,90.30
2023-02-15T20:00:47.336Z,90.30
2023-02-15T20:04:13.761Z,90.30
2023-02-15T20:07:38.617Z,90.30
2023-02-15T20:11:11.972Z,90.30
2023-02-15T20:14:37.741Z,90.40
2023-02-15T20:18:13.735Z,90.50
2023-02-15T20:21:39.884Z,90.50
2023-02-15T20:25:06.281Z,90.40
2023-02-15T20:28:33.012Z,90.40
2023-02-15T20:32:02.567Z,90.50
2023-02-15T20:35:30.047Z,90.40
2023-02-15T20:38:57.511Z,90.50
2023-02-15T20:42:23.512Z,90.60
2023-02-15T20:45:50.884Z,90.70
2023-02-15T20:49:19.107Z,90.80
2023-02-15T20:52:44.065Z,90.80
2023-02-15T20:56:15.189Z,90.80
2023-02-15T20:59:41.769Z,90.60
2023-02-15T21:03:14.974Z,90.80
2023-02-15T21:06:48.180Z,90.70
2023-02-15T21:10:17.858Z,91.00
2023-02-15T21:13:43.456Z,91.00
2023-02-15T21:17:11.034Z,91.30
2023-02-15T21:20:45.878Z,91.30
2023-02-15T21:24:20.536Z,91.30
2023-02-15T21:27:48.633Z,91.50
2023-02-15T21:31:18.299Z,91.30
2023-02-15T21:34:45.721Z,91.30
2023-02-15T21:38:15.879Z,91.40
2023-02-15T21:42:04.939Z,91.30
2023-02-15T21:45:46.901Z,91.00
2023-02-15T21:49:11.665Z,91.10
2023-02-15T21:52:35.684Z,91.30
2023-02-15T21:56:03.431Z,91.30
2023-02-15T21:59:30.723Z,91.40
2023-02-15T22:03:01.466Z,91.30
2023-02-15T22:06:31.115Z,91.30
2023-02-15T22:10:06.540Z,91.30
2023-02-15T22:13:39.841Z,91.30
2023-02-15T22:17:09.740Z,91.50
2023-02-15T22:20:37.348Z,91.60
2023-02-15T22:24:04.449Z,91.70
2023-02-15T22:27:32.159Z,91.60
2023-02-15T22:31:05.572Z,91.60
2023-02-15T22:34:40.697Z,91.50
2023-02-15T22:38:15.672Z,91.50
2023-02-15T22:41:41.493Z,91.40
2023-02-15T22:45:08.532Z,91.30
2023-02-15T22:48:37.710Z,91.30
2023-02-15T22:52:13.958Z,91.30
2023-02-15T22:55:45.873Z,91.30
2023-02-15T22:59:16.896Z,91.20
2023-02-15T23:02:41.896Z,91.30
2023-02-15T23:06:10.792Z,91.10
2023-02-15T23:09:34.481Z,91.20
2023-02-15T23:13:19.889Z,91.20
2023-02-15T23:16:45.893Z,91.20
2023-02-15T23:20:15.022Z,91.30
2023-02-15T23:23:41.787Z,91.10
2023-02-15T23:27:19.936Z,91.20
2023-02-15T23:30:43.754Z,91.70
2023-02-15T23:34:15.763Z,91.80
2023-02-15T23:37:39.397Z,91.90
2023-02-15T23:41:22.868Z,92.00
2023-02-15T23:44:47.418Z,92.10
2023-02-15T23:48:33.484Z,92.10
2023-02-15T23:51:58.707Z,92.20
2023-02-15T23:55:24.631Z,92.60
2023-02-15T23:58:52.359Z,92.50
